CYCD

Nanaimo  Airport

Nanaimo, British Columbia, Canada

CYCD 200000Z 14005KT 100V180 8SM -RA FEW005 BKN010 OVC030 08/08 A2952 RMK SF2SF4SC2 CIG RAG VIS S-SW 2 SLP998

Observed Flight Rules
Nov-20 @ 00:00 UTC (24 minutes ago)
 
Marginal Visual Flight Rules
Wind Visibility Clouds Conditions
140° at 5 knots 8 miles
  • Few at 500' AGL
  • Broken at 1,000' AGL
  • Overcast at 3,000' AGL
  • Light Rain
Temperatures Readings
Current 8°C / 46°F
Dewpoint 8°C / 46°F
Humidity 100%
Altimeter 29.52" Hg
Pressure 999.8 hPa
Elevation 30
Observed Flight Rules
Nov-20 @ 00:00 UTC
(24 minutes ago)
 
MVFR
Wind Visibility
140° at 5 knots 8 miles
Clouds
  • Few at 500' AGL
  • Broken at 1,000' AGL
  • Overcast at 3,000' AGL
Conditions
  • Light Rain
Temperature Dewpoint
8°C / 46°F 8°C / 46°F
Humidity Altimeter Pressure
100% 29.52" Hg 999.8 hPa